createdAt,value
2022-12-25T00:01:54.428Z,7.07
2022-12-25T00:04:21.048Z,7.04
2022-12-25T00:06:47.622Z,7.00
2022-12-25T00:09:14.234Z,6.99
2022-12-25T00:11:40.988Z,7.01
2022-12-25T00:14:07.607Z,7.01
2022-12-25T00:16:34.417Z,7.03
2022-12-25T00:19:01.345Z,7.03
2022-12-25T00:21:28.524Z,7.08
2022-12-25T00:23:57.297Z,7.08
2022-12-25T00:26:26.242Z,7.10
2022-12-25T00:28:57.164Z,7.14
2022-12-25T00:31:25.058Z,7.20
2022-12-25T00:33:52.881Z,7.21
2022-12-25T00:36:21.852Z,7.23
2022-12-25T00:38:48.739Z,7.24
2022-12-25T00:41:18.310Z,7.24
2022-12-25T00:43:44.924Z,7.26
2022-12-25T00:46:12.802Z,7.30
2022-12-25T00:48:40.034Z,7.29
2022-12-25T00:51:11.249Z,7.31
2022-12-25T00:53:37.898Z,7.30
2022-12-25T00:56:06.927Z,7.30
2022-12-25T00:58:34.548Z,7.28
2022-12-25T01:01:10.738Z,7.28
2022-12-25T01:03:37.745Z,7.28
2022-12-25T01:06:07.297Z,7.25
2022-12-25T01:08:36.357Z,7.27
2022-12-25T01:11:08.449Z,7.29
2022-12-25T01:13:37.024Z,7.26
2022-12-25T01:16:11.393Z,7.25
2022-12-25T01:18:38.357Z,7.21
2022-12-25T01:21:09.076Z,7.23
2022-12-25T01:23:36.308Z,7.20
2022-12-25T01:26:07.723Z,7.18
2022-12-25T01:28:34.798Z,7.18
2022-12-25T01:31:02.057Z,7.16
2022-12-25T01:33:28.973Z,7.17
2022-12-25T01:35:56.120Z,7.19
2022-12-25T01:38:22.745Z,7.19
2022-12-25T01:40:49.411Z,7.21
2022-12-25T01:43:31.183Z,7.23
2022-12-25T01:45:58.409Z,7.21
2022-12-25T01:48:38.869Z,7.20
2022-12-25T01:51:13.663Z,7.21
2022-12-25T01:53:40.296Z,7.18
2022-12-25T01:56:08.883Z,7.19
2022-12-25T01:58:36.204Z,7.20
2022-12-25T02:01:02.918Z,7.20
2022-12-25T02:03:29.677Z,7.20
2022-12-25T02:05:56.466Z,7.23
2022-12-25T02:08:23.888Z,7.23
2022-12-25T02:10:50.804Z,7.23
2022-12-25T02:13:19.432Z,7.24
2022-12-25T02:16:06.007Z,7.20
2022-12-25T02:18:46.652Z,7.22
2022-12-25T02:21:37.707Z,7.22
2022-12-25T02:24:36.659Z,7.22
2022-12-25T02:27:31.955Z,7.20
2022-12-25T02:30:10.510Z,7.19
2022-12-25T02:32:46.103Z,7.23
2022-12-25T02:35:21.344Z,7.23
2022-12-25T02:38:04.929Z,7.24
2022-12-25T02:40:38.842Z,7.23
2022-12-25T02:43:30.374Z,7.24
2022-12-25T02:46:18.942Z,7.25
2022-12-25T02:49:09.634Z,7.23
2022-12-25T02:51:59.601Z,7.20
2022-12-25T02:54:55.236Z,7.22
2022-12-25T02:57:46.631Z,7.20
2022-12-25T03:00:33.112Z,7.20
2022-12-25T03:03:21.882Z,7.17
2022-12-25T03:06:09.079Z,7.21
2022-12-25T03:08:42.281Z,7.19
2022-12-25T03:11:31.208Z,7.14
2022-12-25T03:14:23.171Z,7.19
2022-12-25T03:16:56.454Z,7.18
2022-12-25T03:19:47.607Z,7.16
2022-12-25T03:22:40.356Z,7.15
2022-12-25T03:25:25.833Z,7.14
2022-12-25T03:27:55.772Z,7.15
2022-12-25T03:30:44.523Z,7.17
2022-12-25T03:33:45.885Z,7.23
2022-12-25T03:36:31.472Z,7.29
2022-12-25T03:39:34.825Z,7.32
2022-12-25T03:42:37.484Z,7.32
2022-12-25T03:45:30.594Z,7.28
2022-12-25T03:48:13.040Z,7.29
2022-12-25T03:51:12.723Z,7.28
2022-12-25T03:54:09.488Z,7.30
2022-12-25T03:56:56.648Z,7.30
2022-12-25T03:59:42.597Z,7.33
2022-12-25T04:02:29.051Z,7.31
2022-12-25T04:05:14.069Z,7.29
2022-12-25T04:07:59.058Z,7.27
2022-12-25T04:10:44.249Z,7.30
2022-12-25T04:13:29.633Z,7.33
2022-12-25T04:16:14.940Z,7.34
2022-12-25T04:19:00.117Z,7.33
2022-12-25T04:21:45.243Z,7.33
2022-12-25T04:24:30.559Z,7.33
2022-12-25T04:27:16.009Z,7.37
2022-12-25T04:30:01.166Z,7.39
2022-12-25T04:32:46.588Z,7.40
2022-12-25T04:35:31.923Z,7.38
2022-12-25T04:37:58.541Z,7.38
2022-12-25T04:40:25.227Z,7.41
2022-12-25T04:42:52.383Z,7.41
2022-12-25T04:45:19.336Z,7.38
2022-12-25T04:47:46.263Z,7.37
2022-12-25T04:50:12.928Z,7.34
2022-12-25T04:52:44.078Z,7.36
2022-12-25T04:55:12.097Z,7.36
2022-12-25T04:57:39.764Z,7.35
2022-12-25T05:00:07.050Z,7.33
2022-12-25T05:02:34.238Z,7.35
2022-12-25T05:05:00.950Z,7.35
2022-12-25T05:07:27.536Z,7.36
2022-12-25T05:09:54.197Z,7.33
2022-12-25T05:12:20.876Z,7.36
2022-12-25T05:14:47.498Z,7.37
2022-12-25T05:17:14.132Z,7.31
2022-12-25T05:19:40.756Z,7.33
2022-12-25T05:22:07.352Z,7.35
2022-12-25T05:24:34.038Z,7.34
2022-12-25T05:27:00.787Z,7.32
2022-12-25T05:29:27.448Z,7.30
2022-12-25T05:31:54.054Z,7.26
2022-12-25T05:34:20.676Z,7.26
2022-12-25T05:36:47.264Z,7.25
2022-12-25T05:39:13.875Z,7.28
2022-12-25T05:41:40.887Z,7.28
2022-12-25T05:44:07.514Z,7.29
2022-12-25T05:46:34.166Z,7.24
2022-12-25T05:49:00.921Z,7.21
2022-12-25T05:51:27.747Z,7.21
2022-12-25T05:53:54.354Z,7.21
2022-12-25T05:56:20.973Z,7.22
2022-12-25T05:58:47.585Z,7.16
2022-12-25T06:01:21.715Z,7.17
2022-12-25T06:03:48.887Z,7.15
2022-12-25T06:06:15.924Z,7.15
2022-12-25T06:08:42.684Z,7.15
2022-12-25T06:11:10.477Z,7.11
2022-12-25T06:13:37.495Z,7.08
2022-12-25T06:16:09.285Z,7.09
2022-12-25T06:18:41.019Z,7.15
2022-12-25T06:21:09.346Z,7.14
2022-12-25T06:23:37.421Z,7.18
2022-12-25T06:26:10.831Z,7.23
2022-12-25T06:28:37.890Z,7.25
2022-12-25T06:31:14.382Z,7.29
2022-12-25T06:33:42.084Z,7.29
2022-12-25T06:36:12.404Z,7.29
2022-12-25T06:38:39.081Z,7.31
2022-12-25T06:41:08.333Z,7.34
2022-12-25T06:43:34.944Z,7.38
2022-12-25T06:46:07.359Z,7.44
2022-12-25T06:48:34.611Z,7.47
2022-12-25T06:51:02.471Z,7.50
2022-12-25T06:53:35.355Z,7.53
2022-12-25T06:56:07.764Z,7.55
2022-12-25T06:58:34.441Z,7.57
2022-12-25T07:01:05.888Z,7.59
2022-12-25T07:03:32.505Z,7.60
2022-12-25T07:05:59.093Z,7.60
2022-12-25T07:08:25.770Z,7.56
2022-12-25T07:10:52.366Z,7.63
2022-12-25T07:13:18.949Z,7.59
2022-12-25T07:15:45.529Z,7.61
2022-12-25T07:18:12.151Z,7.59
2022-12-25T07:20:39.011Z,7.66
2022-12-25T07:23:05.671Z,7.67
2022-12-25T07:25:37.254Z,7.69
2022-12-25T07:28:04.380Z,7.70
2022-12-25T07:30:31.039Z,7.74
2022-12-25T07:32:57.744Z,7.77
2022-12-25T07:35:24.427Z,7.78
2022-12-25T07:37:51.184Z,7.78
2022-12-25T07:40:17.882Z,7.77
2022-12-25T07:42:44.488Z,7.82
2022-12-25T07:45:11.220Z,7.83
2022-12-25T07:47:37.833Z,7.84
2022-12-25T07:50:04.978Z,7.85
2022-12-25T07:52:32.752Z,7.88
2022-12-25T07:55:01.011Z,7.88
2022-12-25T07:57:27.821Z,7.88
2022-12-25T07:59:54.409Z,7.91
2022-12-25T08:02:26.965Z,7.95
2022-12-25T08:04:57.397Z,7.91
2022-12-25T08:07:24.257Z,7.92
2022-12-25T08:09:50.994Z,7.93
2022-12-25T08:12:17.598Z,7.99
2022-12-25T08:14:44.174Z,7.99
2022-12-25T08:17:10.928Z,7.94
2022-12-25T08:19:37.644Z,7.93
2022-12-25T08:22:04.287Z,7.87
2022-12-25T08:24:30.888Z,7.86
2022-12-25T08:26:57.499Z,7.84
2022-12-25T08:29:24.166Z,7.83
2022-12-25T08:31:51.077Z,7.84
2022-12-25T08:34:17.694Z,7.89
2022-12-25T08:36:44.278Z,7.95
2022-12-25T08:39:10.899Z,7.95
2022-12-25T08:41:37.531Z,8.01
2022-12-25T08:44:05.520Z,7.99
2022-12-25T08:46:32.939Z,8.01
2022-12-25T08:48:59.819Z,8.02
2022-12-25T08:51:26.621Z,8.04
2022-12-25T08:53:57.956Z,8.08
2022-12-25T08:56:24.546Z,8.09
2022-12-25T08:58:51.161Z,8.15
2022-12-25T09:01:17.801Z,8.18
2022-12-25T09:03:44.667Z,8.20
2022-12-25T09:06:15.958Z,8.24
2022-12-25T09:08:48.807Z,8.28
2022-12-25T09:11:17.190Z,8.30
2022-12-25T09:13:43.937Z,8.31
2022-12-25T09:16:13.955Z,8.36
2022-12-25T09:18:41.185Z,8.40
2022-12-25T09:21:11.026Z,8.43
2022-12-25T09:23:38.164Z,8.47
2022-12-25T09:26:07.122Z,8.51
2022-12-25T09:28:33.768Z,8.54
2022-12-25T09:31:00.731Z,8.57
2022-12-25T09:33:27.866Z,8.62
2022-12-25T09:36:02.503Z,8.66
2022-12-25T09:38:29.399Z,8.69
2022-12-25T09:41:07.800Z,8.72
2022-12-25T09:43:42.394Z,8.72
2022-12-25T09:46:15.927Z,8.74
2022-12-25T09:48:49.173Z,8.74
2022-12-25T09:51:17.447Z,8.78
2022-12-25T09:53:52.386Z,8.83
2022-12-25T09:56:25.937Z,8.92
2022-12-25T09:58:54.012Z,8.98
2022-12-25T10:01:44.784Z,9.02
2022-12-25T10:04:41.117Z,9.05
2022-12-25T10:07:15.824Z,9.03
2022-12-25T10:10:14.990Z,9.00
2022-12-25T10:12:59.134Z,8.98
2022-12-25T10:15:25.684Z,8.92
2022-12-25T10:18:13.456Z,8.87
2022-12-25T10:20:50.635Z,8.86
2022-12-25T10:23:26.193Z,8.81
2022-12-25T10:25:53.893Z,8.78
2022-12-25T10:28:33.993Z,8.82
2022-12-25T10:31:14.215Z,8.84
2022-12-25T10:33:40.868Z,8.87
2022-12-25T10:36:09.742Z,8.87
2022-12-25T10:38:39.330Z,8.88
2022-12-25T10:41:43.455Z,8.93
2022-12-25T10:44:16.024Z,9.02
2022-12-25T10:46:49.461Z,9.05
2022-12-25T10:49:17.510Z,9.10
2022-12-25T10:51:45.097Z,9.18
2022-12-25T10:54:41.492Z,9.30
2022-12-25T10:57:08.141Z,9.34
2022-12-25T10:59:42.951Z,9.27
2022-12-25T11:02:15.906Z,9.32
2022-12-25T11:04:43.073Z,9.35
2022-12-25T11:07:18.565Z,9.39
2022-12-25T11:10:04.803Z,9.39
2022-12-25T11:12:37.029Z,9.46
2022-12-25T11:15:31.657Z,9.45
2022-12-25T11:17:58.561Z,9.48
2022-12-25T11:20:25.371Z,9.52
2022-12-25T11:22:52.422Z,9.52
2022-12-25T11:25:27.626Z,9.50
2022-12-25T11:28:03.249Z,9.51
2022-12-25T11:30:33.192Z,9.53
2022-12-25T11:33:07.924Z,9.55
2022-12-25T11:35:46.784Z,9.59
2022-12-25T11:38:13.493Z,9.58
2022-12-25T11:40:48.927Z,9.58
2022-12-25T11:43:26.695Z,9.65
2022-12-25T11:46:04.351Z,9.69
2022-12-25T11:48:47.103Z,9.71
2022-12-25T11:51:16.457Z,9.68
2022-12-25T11:53:54.098Z,9.65
2022-12-25T11:56:28.161Z,9.66
2022-12-25T11:59:01.075Z,9.66
2022-12-25T12:01:38.938Z,9.60
2022-12-25T12:04:25.799Z,9.61
2022-12-25T12:07:04.970Z,9.57
2022-12-25T12:10:16.420Z,9.56
2022-12-25T12:13:12.354Z,9.54
2022-12-25T12:15:50.154Z,9.54
2022-12-25T12:18:25.900Z,9.45
2022-12-25T12:21:01.679Z,9.46
2022-12-25T12:23:30.859Z,9.40
2022-12-25T12:25:57.926Z,9.47
2022-12-25T12:28:27.898Z,9.54
2022-12-25T12:31:07.023Z,9.55
2022-12-25T12:33:39.027Z,9.51
2022-12-25T12:36:06.582Z,9.49
2022-12-25T12:38:35.030Z,9.40
2022-12-25T12:41:05.624Z,9.38
2022-12-25T12:43:37.772Z,9.36
2022-12-25T12:46:08.062Z,9.31
2022-12-25T12:48:41.650Z,9.28
2022-12-25T12:51:11.673Z,9.25
2022-12-25T12:53:41.288Z,9.23
2022-12-25T12:56:20.368Z,9.21
2022-12-25T12:58:51.076Z,9.22
2022-12-25T13:04:35.981Z,9.25
2022-12-25T13:07:16.368Z,9.23
2022-12-25T13:09:49.065Z,9.20
2022-12-25T13:12:17.216Z,9.24
2022-12-25T13:14:48.149Z,9.24
2022-12-25T13:17:20.146Z,9.21
2022-12-25T13:19:49.920Z,9.20
2022-12-25T13:22:24.527Z,9.23
2022-12-25T13:25:02.563Z,9.14
2022-12-25T13:27:31.832Z,9.17
2022-12-25T13:29:58.912Z,9.18
2022-12-25T13:32:28.929Z,9.14
2022-12-25T13:34:56.119Z,9.08
2022-12-25T13:37:25.769Z,9.11
2022-12-25T13:39:59.276Z,9.02
2022-12-25T13:42:30.248Z,9.06
2022-12-25T13:45:02.551Z,9.05
2022-12-25T13:47:35.634Z,9.04
2022-12-25T13:50:13.750Z,9.05
2022-12-25T14:04:16.515Z,9.02
2022-12-25T14:06:53.655Z,8.95
2022-12-25T14:09:32.429Z,8.97
2022-12-25T14:40:23.602Z,8.69
2022-12-25T14:43:03.476Z,8.64
2022-12-25T14:46:34.084Z,8.59
2022-12-25T14:49:29.296Z,8.57
2022-12-25T14:52:00.437Z,8.57
2022-12-25T14:55:04.119Z,8.52
2022-12-25T15:01:27.091Z,8.48
2022-12-25T15:08:12.366Z,8.31
2022-12-25T15:11:06.312Z,8.30
2022-12-25T15:14:51.684Z,8.24
2022-12-25T15:17:32.821Z,8.19
2022-12-25T15:20:03.968Z,8.18
2022-12-25T15:22:47.688Z,8.14
2022-12-25T15:25:20.525Z,8.16
2022-12-25T15:27:48.369Z,8.11
2022-12-25T15:30:17.349Z,8.06
2022-12-25T15:33:16.946Z,8.02
2022-12-25T15:36:13.383Z,7.96
2022-12-25T15:38:54.759Z,7.95
2022-12-25T15:41:54.915Z,7.92
2022-12-25T15:44:27.432Z,7.87
2022-12-25T15:46:54.977Z,7.83
2022-12-25T15:49:35.558Z,7.83
2022-12-25T15:52:03.977Z,7.79
2022-12-25T15:54:41.476Z,7.79
2022-12-25T15:57:17.961Z,7.69
2022-12-25T15:59:44.706Z,7.67
2022-12-25T16:02:30.660Z,7.63
2022-12-25T16:05:05.427Z,7.67
2022-12-25T16:08:14.082Z,7.67
2022-12-25T16:10:40.790Z,7.65
2022-12-25T16:13:07.417Z,7.60
2022-12-25T16:15:34.188Z,7.62
2022-12-25T16:18:00.870Z,7.60
2022-12-25T16:20:27.515Z,7.60
2022-12-25T16:22:54.214Z,7.58
2022-12-25T16:25:21.636Z,7.61
2022-12-25T16:27:48.676Z,7.59
2022-12-25T16:30:19.026Z,7.55
2022-12-25T16:32:49.812Z,7.56
2022-12-25T16:35:17.840Z,7.58
2022-12-25T16:37:44.476Z,7.61
2022-12-25T16:40:11.416Z,7.61
2022-12-25T16:42:38.609Z,7.58
2022-12-25T16:45:05.975Z,7.57
2022-12-25T16:47:32.673Z,7.58
2022-12-25T16:49:59.351Z,7.58
2022-12-25T16:52:26.092Z,7.56
2022-12-25T16:54:52.796Z,7.62
2022-12-25T16:57:20.092Z,7.61
2022-12-25T16:59:46.948Z,7.64
2022-12-25T17:02:19.239Z,7.66
2022-12-25T17:04:47.178Z,7.66
2022-12-25T17:07:15.976Z,7.61
2022-12-25T17:09:44.542Z,7.61
2022-12-25T17:12:11.468Z,7.63
2022-12-25T17:14:38.249Z,7.58
2022-12-25T17:17:05.138Z,7.61
2022-12-25T17:19:31.800Z,7.62
2022-12-25T17:21:59.880Z,7.61
2022-12-25T17:24:27.402Z,7.60
2022-12-25T17:26:55.117Z,7.62
2022-12-25T17:29:23.003Z,7.62
2022-12-25T17:31:50.913Z,7.66
2022-12-25T17:34:17.584Z,7.70
2022-12-25T17:36:44.245Z,7.63
2022-12-25T17:39:11.535Z,7.61
2022-12-25T17:41:38.888Z,7.57
2022-12-25T17:44:09.040Z,7.55
2022-12-25T17:46:35.826Z,7.53
2022-12-25T17:49:04.248Z,7.53
2022-12-25T17:51:31.799Z,7.51
2022-12-25T17:54:03.220Z,7.54
2022-12-25T17:56:31.484Z,7.59
2022-12-25T17:59:01.944Z,7.58
2022-12-25T18:01:29.075Z,7.56
2022-12-25T18:03:56.651Z,7.54
2022-12-25T18:06:26.057Z,7.50
2022-12-25T18:08:54.920Z,7.49
2022-12-25T18:11:24.528Z,7.52
2022-12-25T18:13:52.330Z,7.53
2022-12-25T18:16:23.202Z,7.54
2022-12-25T18:18:52.700Z,7.49
2022-12-25T18:21:27.204Z,7.44
2022-12-25T18:24:26.328Z,7.47
2022-12-25T18:26:53.380Z,7.48
2022-12-25T18:29:20.140Z,7.54
2022-12-25T18:31:51.140Z,7.58
2022-12-25T18:34:18.614Z,7.64
2022-12-25T18:36:45.815Z,7.59
2022-12-25T18:39:16.214Z,7.61
2022-12-25T18:42:15.341Z,7.59
2022-12-25T18:44:42.143Z,7.60
2022-12-25T18:47:09.924Z,7.63
2022-12-25T18:49:37.840Z,7.68
2022-12-25T18:52:48.522Z,7.72
2022-12-25T18:55:02.785Z,7.75
2022-12-25T18:57:35.560Z,7.78
2022-12-25T19:00:04.845Z,7.78
2022-12-25T19:02:31.753Z,7.77
2022-12-25T19:04:58.517Z,7.77
2022-12-25T19:07:25.203Z,7.76
2022-12-25T19:09:51.981Z,7.74
2022-12-25T19:12:18.869Z,7.72
2022-12-25T19:14:47.888Z,7.75
2022-12-25T19:17:15.666Z,7.69
2022-12-25T19:19:42.285Z,7.63
2022-12-25T19:22:09.051Z,7.58
2022-12-25T19:24:40.212Z,7.56
2022-12-25T19:27:07.176Z,7.55
2022-12-25T19:29:33.991Z,7.55
2022-12-25T19:32:01.428Z,7.56
2022-12-25T19:34:28.322Z,7.61
2022-12-25T19:36:55.000Z,7.61
2022-12-25T19:39:21.600Z,7.65
2022-12-25T19:41:48.354Z,7.67
2022-12-25T19:44:15.761Z,7.60
2022-12-25T19:46:42.656Z,7.59
2022-12-25T19:49:32.311Z,7.61
2022-12-25T19:51:59.157Z,7.59
2022-12-25T19:54:28.609Z,7.66
2022-12-25T19:56:55.685Z,7.66
2022-12-25T19:59:23.525Z,7.66
2022-12-25T20:01:50.714Z,7.69
2022-12-25T20:04:18.367Z,7.68
2022-12-25T20:06:48.297Z,7.70
2022-12-25T20:09:20.853Z,7.71
2022-12-25T20:11:48.000Z,7.71
2022-12-25T20:14:16.616Z,7.75
2022-12-25T20:16:44.322Z,7.73
2022-12-25T20:19:13.121Z,7.78
2022-12-25T20:21:40.395Z,7.82
2022-12-25T20:24:10.453Z,7.79
2022-12-25T20:26:39.116Z,7.72
2022-12-25T20:29:06.259Z,7.73
2022-12-25T20:31:35.214Z,7.65
2022-12-25T20:34:08.190Z,7.65
2022-12-25T20:36:37.625Z,7.66
2022-12-25T20:39:10.077Z,7.66
2022-12-25T20:41:38.170Z,7.58
2022-12-25T20:44:06.894Z,7.49
2022-12-25T20:46:33.732Z,7.46
2022-12-25T20:49:05.640Z,7.44
2022-12-25T20:51:32.699Z,7.39
2022-12-25T20:53:59.449Z,7.36
2022-12-25T20:56:27.236Z,7.32
2022-12-25T20:59:03.483Z,7.31
2022-12-25T21:01:31.871Z,7.23
2022-12-25T21:03:59.450Z,7.26
2022-12-25T21:06:26.524Z,7.28
2022-12-25T21:08:53.458Z,7.25
2022-12-25T21:11:21.412Z,7.21
2022-12-25T21:13:49.074Z,7.16
2022-12-25T21:16:19.937Z,7.16
2022-12-25T21:18:47.534Z,7.11
2022-12-25T21:21:14.270Z,7.11
2022-12-25T21:23:41.352Z,7.09
2022-12-25T21:26:12.124Z,7.04
2022-12-25T21:28:38.793Z,7.03
2022-12-25T21:31:09.390Z,6.99
2022-12-25T21:33:55.199Z,6.98
2022-12-25T21:36:23.895Z,6.99
2022-12-25T21:39:14.428Z,6.98
2022-12-25T21:41:42.107Z,6.94
2022-12-25T21:44:10.381Z,6.92
2022-12-25T21:46:37.077Z,6.90
2022-12-25T21:49:03.834Z,6.88
2022-12-25T21:51:51.771Z,6.86
2022-12-25T21:54:22.832Z,6.85
2022-12-25T21:56:49.969Z,6.82
2022-12-25T21:59:19.449Z,6.78
2022-12-25T22:01:48.810Z,6.78
2022-12-25T22:04:16.920Z,6.80
2022-12-25T22:07:02.432Z,6.86
2022-12-25T22:09:29.615Z,6.89
2022-12-25T22:12:15.203Z,6.93
2022-12-25T22:14:54.982Z,6.89
2022-12-25T22:17:49.008Z,6.87
2022-12-25T22:20:22.517Z,6.80
2022-12-25T22:22:54.302Z,6.77
2022-12-25T22:25:22.328Z,6.75
2022-12-25T22:27:50.025Z,6.76
2022-12-25T22:30:25.508Z,6.72
2022-12-25T22:32:52.806Z,6.78
2022-12-25T22:35:20.742Z,6.82
2022-12-25T22:37:48.507Z,6.77
2022-12-25T22:40:48.042Z,6.81
2022-12-25T22:44:15.279Z,6.77
2022-12-25T22:46:27.498Z,6.81
2022-12-25T22:48:54.468Z,6.81
2022-12-25T22:51:21.176Z,6.79
2022-12-25T22:53:49.145Z,6.79
2022-12-25T22:56:16.680Z,6.80
2022-12-25T22:58:43.548Z,6.78
2022-12-25T23:01:11.647Z,6.76
2022-12-25T23:03:38.821Z,6.77
2022-12-25T23:06:06.456Z,6.81
2022-12-25T23:08:33.304Z,6.83
2022-12-25T23:11:04.436Z,6.90
2022-12-25T23:13:49.855Z,6.90
2022-12-25T23:16:17.354Z,6.97
2022-12-25T23:19:03.096Z,7.02
2022-12-25T23:21:48.443Z,7.06
2022-12-25T23:24:34.531Z,7.05
2022-12-25T23:27:04.495Z,7.10
2022-12-25T23:30:05.080Z,7.18
2022-12-25T23:32:48.461Z,7.25
2022-12-25T23:35:15.196Z,7.30
2022-12-25T23:37:42.168Z,7.32
2022-12-25T23:40:09.657Z,7.36
2022-12-25T23:42:36.838Z,7.41
2022-12-25T23:45:04.707Z,7.41
2022-12-25T23:47:31.422Z,7.42
2022-12-25T23:50:11.099Z,7.43
2022-12-25T23:52:38.129Z,7.44
2022-12-25T23:55:05.653Z,7.45
2022-12-25T23:57:32.553Z,7.48
2022-12-25T23:59:59.953Z,7.48
